createdAt,value
2019-04-14T00:03:36.907Z,58.60
2019-04-14T00:08:13.357Z,62.48
2019-04-14T00:12:49.337Z,60.60
2019-04-14T00:17:26.209Z,67.30
2019-04-14T00:22:03.272Z,59.85
2019-04-14T00:26:40.085Z,60.57
2019-04-14T00:31:17.165Z,61.80
2019-04-14T00:36:04.391Z,65.08
2019-04-14T00:40:45.798Z,65.60
2019-04-14T00:45:37.002Z,60.52
2019-04-14T00:50:07.991Z,61.75
2019-04-14T00:54:43.949Z,61.50
2019-04-14T00:59:20.069Z,57.65
2019-04-14T01:03:56.867Z,64.42
2019-04-14T01:08:33.515Z,53.10
2019-04-14T01:13:11.111Z,56.88
2019-04-14T01:17:46.797Z,71.00
2019-04-14T01:22:22.824Z,62.33
2019-04-14T01:26:59.540Z,56.60
2019-04-14T01:31:35.998Z,57.62
2019-04-14T01:36:12.761Z,56.90
2019-04-14T01:40:48.862Z,55.05
2019-04-14T01:45:25.332Z,54.60
2019-04-14T01:50:01.804Z,64.00
2019-04-14T01:54:56.139Z,55.43
2019-04-14T01:59:32.652Z,61.20
2019-04-14T02:04:09.500Z,61.70
2019-04-14T02:08:45.852Z,60.23
2019-04-14T02:13:22.516Z,58.90
2019-04-14T02:17:58.916Z,61.80
2019-04-14T02:22:35.600Z,62.25
2019-04-14T02:27:12.071Z,60.23
2019-04-14T02:32:18.533Z,56.50
2019-04-14T02:36:57.094Z,52.67
2019-04-14T02:41:35.744Z,57.98
2019-04-14T02:46:05.837Z,53.93
2019-04-14T02:50:38.535Z,57.00
2019-04-14T02:55:18.960Z,55.23
2019-04-14T02:59:59.600Z,60.00
2019-04-14T03:04:35.584Z,59.67
2019-04-14T03:13:51.431Z,53.87
2019-04-14T03:18:48.391Z,56.35
2019-04-14T03:23:32.945Z,61.80
2019-04-14T03:28:28.337Z,54.20
2019-04-14T03:37:46.857Z,52.67
2019-04-14T03:42:21.447Z,52.50
2019-04-14T03:47:07.190Z,54.45
2019-04-14T03:56:17.650Z,55.73
2019-04-14T04:00:53.565Z,50.63
2019-04-14T04:05:30.280Z,44.83
2019-04-14T04:10:11.830Z,49.17
2019-04-14T04:14:48.545Z,44.00
2019-04-14T04:19:38.329Z,48.07
2019-04-14T04:24:33.498Z,47.00
2019-04-14T04:29:17.918Z,42.38
2019-04-14T04:33:58.868Z,49.63
2019-04-14T04:38:37.728Z,42.70
2019-04-14T04:43:14.614Z,42.27
2019-04-14T04:47:51.292Z,43.67
2019-04-14T04:52:28.037Z,42.00
2019-04-14T04:57:04.650Z,32.25
2019-04-14T05:01:40.777Z,29.12
2019-04-14T05:07:09.972Z,41.98
2019-04-14T05:12:04.743Z,24.27
2019-04-14T05:16:41.852Z,19.80
2019-04-14T05:21:17.701Z,27.85
2019-04-14T05:25:53.907Z,23.63
2019-04-14T05:30:30.661Z,25.33
2019-04-14T05:35:07.458Z,25.85
2019-04-14T05:39:44.026Z,24.97
2019-04-14T05:44:20.758Z,27.50
2019-04-14T05:48:57.786Z,25.80
2019-04-14T05:53:34.998Z,27.65
2019-04-14T05:58:12.091Z,26.17
2019-04-14T06:02:48.526Z,26.30
2019-04-14T06:07:24.390Z,21.62
2019-04-14T06:12:00.195Z,22.07
2019-04-14T06:16:35.960Z,21.73
2019-04-14T06:21:11.791Z,21.85
2019-04-14T06:25:47.552Z,20.50
2019-04-14T06:30:54.440Z,27.20
2019-04-14T06:35:34.160Z,28.95
2019-04-14T06:40:10.021Z,22.85
2019-04-14T06:44:45.787Z,25.85
2019-04-14T06:49:21.568Z,92.17
2019-04-14T06:53:57.342Z,30.95
2019-04-14T06:58:33.158Z,21.40
2019-04-14T07:03:08.933Z,20.77
2019-04-14T07:07:56.216Z,21.57
2019-04-14T07:12:22.169Z,18.02
2019-04-14T07:16:58.001Z,18.07
2019-04-14T07:21:33.785Z,23.23
2019-04-14T07:26:09.569Z,18.50
2019-04-14T07:31:02.618Z,18.30
2019-04-14T07:36:10.637Z,16.33
2019-04-14T07:41:03.145Z,15.67
2019-04-14T07:45:50.682Z,18.83
2019-04-14T07:50:37.964Z,14.57
2019-04-14T07:55:18.129Z,15.20
2019-04-14T08:00:08.812Z,16.03
2019-04-14T08:04:54.793Z,17.60
2019-04-14T08:09:30.560Z,16.90
2019-04-14T08:14:06.358Z,15.47
2019-04-14T08:18:42.105Z,18.07
2019-04-14T08:23:18.011Z,16.95
2019-04-14T08:27:54.872Z,12.03
2019-04-14T08:32:30.697Z,13.00
2019-04-14T08:37:06.465Z,14.70
2019-04-14T08:41:50.065Z,11.77
2019-04-14T08:46:56.613Z,15.70
2019-04-14T08:51:46.694Z,12.30
2019-04-14T08:56:33.421Z,15.80
2019-04-14T09:01:16.819Z,14.20
2019-04-14T09:06:10.008Z,14.97
2019-04-14T09:10:48.384Z,12.90
2019-04-14T09:15:24.152Z,16.20
2019-04-14T09:19:59.914Z,13.53
2019-04-14T09:24:35.726Z,10.80
2019-04-14T09:29:11.470Z,12.97
2019-04-14T09:33:47.241Z,13.13
2019-04-14T09:38:22.996Z,11.83
2019-04-14T09:43:02.114Z,14.33
2019-04-14T09:47:37.864Z,13.27
2019-04-14T09:52:13.709Z,12.27
2019-04-14T09:56:49.461Z,12.93
2019-04-14T10:01:25.274Z,11.73
2019-04-14T10:06:01.083Z,11.17
2019-04-14T10:10:36.934Z,10.57
2019-04-14T10:15:12.926Z,12.57
2019-04-14T10:19:48.693Z,12.27
2019-04-14T10:24:24.456Z,14.33
2019-04-14T10:29:00.341Z,11.80
2019-04-14T10:33:36.128Z,11.63
2019-04-14T10:38:11.901Z,13.10
2019-04-14T10:42:47.673Z,11.87
2019-04-14T10:47:23.517Z,13.83
2019-04-14T10:51:59.297Z,12.13
2019-04-14T10:56:35.075Z,14.20
2019-04-14T11:01:10.837Z,12.20
2019-04-14T11:06:03.084Z,13.67
2019-04-14T11:10:38.829Z,11.53
2019-04-14T11:15:15.602Z,12.90
2019-04-14T11:19:51.424Z,14.03
2019-04-14T11:24:30.366Z,17.20
2019-04-14T11:29:06.154Z,13.50
2019-04-14T11:34:00.088Z,13.40
2019-04-14T11:38:47.529Z,13.03
2019-04-14T11:43:23.322Z,13.97
2019-04-14T11:47:59.159Z,16.63
2019-04-14T11:52:35.795Z,15.20
2019-04-14T11:57:11.577Z,12.97
2019-04-14T12:02:14.204Z,15.43
2019-04-14T12:07:08.946Z,22.37
2019-04-14T12:11:44.740Z,19.92
2019-04-14T12:16:20.493Z,20.53
2019-04-14T12:20:56.292Z,19.07
2019-04-14T12:25:32.117Z,19.10
2019-04-14T12:30:11.043Z,17.37
2019-04-14T12:34:46.977Z,24.73
2019-04-14T12:39:24.300Z,25.73
2019-04-14T12:44:27.789Z,22.10
2019-04-14T12:49:22.507Z,26.75
2019-04-14T12:53:58.289Z,26.47
2019-04-14T12:58:44.613Z,32.93
2019-04-14T13:03:21.260Z,32.70
2019-04-14T13:07:57.032Z,27.23
2019-04-14T13:12:32.829Z,24.15
2019-04-14T13:17:08.698Z,26.63
2019-04-14T13:21:44.478Z,30.57
2019-04-14T13:26:20.266Z,33.33
2019-04-14T13:30:56.129Z,30.20
2019-04-14T13:35:31.877Z,33.30
2019-04-14T13:40:07.972Z,36.13
2019-04-14T13:44:43.720Z,33.78
2019-04-14T13:49:19.514Z,30.10
2019-04-14T13:53:55.348Z,31.60
2019-04-14T13:58:31.143Z,32.13
2019-04-14T14:03:06.993Z,37.20
2019-04-14T14:07:42.818Z,38.30
2019-04-14T14:12:46.481Z,40.12
2019-04-14T14:17:45.148Z,38.80
2019-04-14T14:22:39.921Z,38.83
2019-04-14T14:27:24.514Z,38.70
2019-04-14T14:32:01.537Z,38.63
2019-04-14T14:36:37.322Z,35.50
2019-04-14T14:41:15.329Z,33.67
2019-04-14T14:46:08.397Z,32.53
2019-04-14T14:51:03.241Z,37.77
2019-04-14T14:55:39.009Z,34.07
2019-04-14T15:00:35.074Z,42.07
2019-04-14T15:05:10.902Z,37.73
2019-04-14T15:09:46.678Z,37.88
2019-04-14T15:14:22.440Z,37.30
2019-04-14T15:18:58.226Z,38.40
2019-04-14T15:23:33.993Z,35.17
2019-04-14T15:28:09.788Z,37.87
2019-04-14T15:32:45.621Z,37.83
2019-04-14T15:37:21.483Z,37.07
2019-04-14T15:41:57.246Z,30.53
2019-04-14T15:46:33.034Z,36.00
2019-04-14T15:51:08.816Z,38.13
2019-04-14T15:55:44.588Z,37.28
2019-04-14T16:00:37.657Z,37.50
2019-04-14T16:05:35.396Z,43.90
2019-04-14T16:10:17.508Z,40.07
2019-04-14T16:14:58.880Z,44.77
2019-04-14T16:19:47.617Z,39.90
2019-04-14T16:24:23.400Z,42.48
2019-04-14T16:29:07.149Z,37.23
2019-04-14T16:33:57.758Z,36.17
2019-04-14T16:38:33.508Z,42.13
2019-04-14T16:43:09.296Z,39.80
2019-04-14T16:47:45.049Z,37.67
2019-04-14T16:52:27.265Z,42.03
2019-04-14T16:57:29.189Z,45.58
2019-04-14T17:02:10.876Z,45.43
2019-04-14T17:06:42.679Z,42.03
2019-04-14T17:11:18.457Z,43.13
2019-04-14T17:16:06.514Z,49.97
2019-04-14T17:21:02.681Z,48.57
2019-04-14T17:25:51.272Z,48.97
2019-04-14T17:30:45.990Z,46.13
2019-04-14T17:35:39.344Z,51.13
2019-04-14T17:40:45.897Z,50.17
2019-04-14T17:45:41.821Z,48.80
2019-04-14T17:50:25.137Z,45.17
2019-04-14T17:55:19.831Z,48.35
2019-04-14T18:00:13.806Z,48.17
2019-04-14T18:05:06.853Z,49.40
2019-04-14T18:10:00.190Z,52.73
2019-04-14T18:14:40.640Z,48.97
2019-04-14T18:19:27.004Z,48.17
2019-04-14T18:24:02.989Z,48.30
2019-04-14T18:28:57.728Z,50.27
2019-04-14T18:34:01.346Z,48.63
2019-04-14T18:38:56.095Z,49.67
2019-04-14T18:43:53.685Z,49.48
2019-04-14T18:48:43.585Z,48.17
2019-04-14T18:53:35.243Z,54.20
2019-04-14T18:58:32.961Z,55.03
2019-04-14T19:03:08.939Z,48.08
2019-04-14T19:07:45.031Z,54.27
2019-04-14T19:12:38.392Z,55.07
2019-04-14T19:17:21.433Z,57.15
2019-04-14T19:21:57.285Z,59.33
2019-04-14T19:26:33.050Z,52.30
2019-04-14T19:31:08.829Z,55.83
2019-04-14T19:35:44.594Z,50.57
2019-04-14T19:40:20.385Z,52.87
2019-04-14T19:44:56.149Z,55.87
2019-04-14T19:49:31.929Z,49.13
2019-04-14T19:54:07.796Z,53.23
2019-04-14T19:58:43.578Z,57.47
2019-04-14T20:03:19.333Z,55.63
2019-04-14T20:07:55.112Z,58.30
2019-04-14T20:12:30.949Z,57.25
2019-04-14T20:17:25.654Z,61.47
2019-04-14T20:22:20.398Z,58.57
2019-04-14T20:27:04.012Z,58.67
2019-04-14T20:31:49.998Z,58.57
2019-04-14T20:36:25.779Z,62.58
2019-04-14T20:41:01.565Z,66.13
2019-04-14T20:45:37.341Z,59.33
2019-04-14T20:50:13.393Z,59.42
2019-04-14T20:54:49.169Z,59.48
2019-04-14T20:59:25.074Z,58.92
2019-04-14T21:04:19.809Z,64.22
2019-04-14T21:09:20.281Z,63.40
2019-04-14T21:14:17.787Z,60.77
2019-04-14T21:18:57.650Z,67.97
2019-04-14T21:24:07.249Z,60.80
2019-04-14T21:29:02.028Z,55.97
2019-04-14T21:34:02.266Z,59.50
2019-04-14T21:38:47.281Z,57.77
2019-04-14T21:43:24.383Z,57.57
2019-04-14T21:47:58.685Z,57.17
2019-04-14T21:52:45.397Z,62.70
2019-04-14T21:57:46.135Z,57.77
2019-04-14T22:02:39.303Z,57.93
2019-04-14T22:07:37.516Z,64.55
2019-04-14T22:12:13.717Z,65.97
2019-04-14T22:16:49.497Z,63.87
2019-04-14T22:21:25.288Z,64.55
2019-04-14T22:26:01.041Z,63.03
2019-04-14T22:30:36.818Z,62.67
2019-04-14T22:35:12.785Z,68.12
2019-04-14T22:39:48.664Z,64.97
2019-04-14T22:44:24.445Z,62.43
2019-04-14T22:49:00.316Z,64.58
2019-04-14T22:53:36.074Z,63.78
2019-04-14T22:58:11.921Z,69.93
2019-04-14T23:02:57.820Z,62.87
2019-04-14T23:07:42.709Z,65.70
2019-04-14T23:12:40.439Z,61.57
2019-04-14T23:17:40.922Z,64.42
2019-04-14T23:22:24.849Z,66.07
2019-04-14T23:27:00.676Z,65.20
2019-04-14T23:31:36.436Z,70.70
2019-04-14T23:36:12.224Z,65.40
2019-04-14T23:40:48.006Z,66.30
2019-04-14T23:45:23.808Z,68.13
2019-04-14T23:49:59.572Z,68.93
2019-04-14T23:54:35.343Z,75.10
2019-04-14T23:59:11.096Z,70.03
